sensor_id;sensor_type;location;lat;lon;timestamp;pressure;altitude;pressure_sealevel;temperature;humidity
74573;BME280;63071;51.526;-0.134;2023-02-01T00:01:42;102068.41;;;24.83;26.99
74573;BME280;63071;51.526;-0.134;2023-02-01T00:04:08;102074.09;;;24.82;26.92
74573;BME280;63071;51.526;-0.134;2023-02-01T00:06:33;102076.78;;;24.82;26.49
74573;BME280;63071;51.526;-0.134;2023-02-01T00:08:59;102082.91;;;24.82;26.62
74573;BME280;63071;51.526;-0.134;2023-02-01T00:11:24;102080.59;;;24.81;27.06
74573;BME280;63071;51.526;-0.134;2023-02-01T00:13:50;102074.47;;;24.80;26.78
74573;BME280;63071;51.526;-0.134;2023-02-01T00:16:21;102069.13;;;24.80;27.26
74573;BME280;63071;51.526;-0.134;2023-02-01T00:18:49;102070.22;;;24.79;26.67
74573;BME280;63071;51.526;-0.134;2023-02-01T00:21:20;102079.53;;;24.85;26.61
74573;BME280;63071;51.526;-0.134;2023-02-01T00:23:46;102069.53;;;24.82;26.50
74573;BME280;63071;51.526;-0.134;2023-02-01T00:26:21;102062.97;;;24.79;26.88
74573;BME280;63071;51.526;-0.134;2023-02-01T00:28:48;102061.09;;;24.80;26.55
74573;BME280;63071;51.526;-0.134;2023-02-01T00:31:13;102064.88;;;24.79;26.99
74573;BME280;63071;51.526;-0.134;2023-02-01T00:33:40;102064.88;;;24.79;27.15
74573;BME280;63071;51.526;-0.134;2023-02-01T00:36:13;102048.06;;;24.78;27.00
74573;BME280;63071;51.526;-0.134;2023-02-01T00:38:39;102033.84;;;24.74;26.79
74573;BME280;63071;51.526;-0.134;2023-02-01T00:41:12;102036.19;;;24.76;27.11
74573;BME280;63071;51.526;-0.134;2023-02-01T00:43:38;102035.75;;;24.74;26.87
74573;BME280;63071;51.526;-0.134;2023-02-01T00:46:04;102034.97;;;24.73;26.53
74573;BME280;63071;51.526;-0.134;2023-02-01T00:48:30;102037.63;;;24.73;26.79
74573;BME280;63071;51.526;-0.134;2023-02-01T00:51:00;102036.09;;;24.72;26.94
74573;BME280;63071;51.526;-0.134;2023-02-01T00:53:26;102020.81;;;24.73;26.99
74573;BME280;63071;51.526;-0.134;2023-02-01T00:55:52;102018.50;;;24.71;27.08
74573;BME280;63071;51.526;-0.134;2023-02-01T00:58:17;102031.09;;;24.71;26.54
74573;BME280;63071;51.526;-0.134;2023-02-01T01:00:43;102026.88;;;24.70;26.48
74573;BME280;63071;51.526;-0.134;2023-02-01T01:03:08;102026.88;;;24.70;26.24
74573;BME280;63071;51.526;-0.134;2023-02-01T01:05:48;102034.53;;;24.71;26.65
74573;BME280;63071;51.526;-0.134;2023-02-01T01:08:15;102031.09;;;24.71;26.40
74573;BME280;63071;51.526;-0.134;2023-02-01T01:10:42;102018.50;;;24.71;26.98
74573;BME280;63071;51.526;-0.134;2023-02-01T01:13:08;102007.31;;;24.66;26.43
74573;BME280;63071;51.526;-0.134;2023-02-01T01:15:39;102010.75;;;24.66;26.60
74573;BME280;63071;51.526;-0.134;2023-02-01T01:18:06;102010.41;;;24.68;26.80
74573;BME280;63071;51.526;-0.134;2023-02-01T01:20:34;102010.41;;;24.68;26.72
74573;BME280;63071;51.526;-0.134;2023-02-01T01:23:00;102006.59;;;24.69;26.47
74573;BME280;63071;51.526;-0.134;2023-02-01T01:25:25;102010.84;;;24.70;26.49
74573;BME280;63071;51.526;-0.134;2023-02-01T01:27:51;101995.56;;;24.70;26.86
74573;BME280;63071;51.526;-0.134;2023-02-01T01:30:16;101990.56;;;24.69;26.77
74573;BME280;63071;51.526;-0.134;2023-02-01T01:32:42;101989.03;;;24.68;26.44
74573;BME280;63071;51.526;-0.134;2023-02-01T01:35:08;101990.13;;;24.67;26.33
74573;BME280;63071;51.526;-0.134;2023-02-01T01:37:34;101995.50;;;24.67;26.04
74573;BME280;63071;51.526;-0.134;2023-02-01T01:40:01;102003.00;;;24.61;26.11
74573;BME280;63071;51.526;-0.134;2023-02-01T01:42:26;101982.41;;;24.62;26.20
74573;BME280;63071;51.526;-0.134;2023-02-01T01:47:25;101983.59;;;24.64;26.28
74573;BME280;63071;51.526;-0.134;2023-02-01T01:49:52;101997.66;;;24.61;26.62
74573;BME280;63071;51.526;-0.134;2023-02-01T01:52:18;101995.78;;;24.62;26.54
74573;BME280;63071;51.526;-0.134;2023-02-01T01:54:49;101990.84;;;24.64;26.30
74573;BME280;63071;51.526;-0.134;2023-02-01T01:57:24;101991.19;;;24.62;26.12
74573;BME280;63071;51.526;-0.134;2023-02-01T02:02:36;102000.41;;;24.65;26.32
74573;BME280;63071;51.526;-0.134;2023-02-01T02:05:03;101997.41;;;24.66;26.25
74573;BME280;63071;51.526;-0.134;2023-02-01T02:07:35;102003.84;;;24.65;26.00
74573;BME280;63071;51.526;-0.134;2023-02-01T02:10:05;101994.28;;;24.64;26.38
74573;BME280;63071;51.526;-0.134;2023-02-01T02:12:32;101991.53;;;24.61;26.15
74573;BME280;63071;51.526;-0.134;2023-02-01T02:14:59;102002.22;;;24.61;26.71
74573;BME280;63071;51.526;-0.134;2023-02-01T02:32:21;101990.69;;;24.56;26.44
74573;BME280;63071;51.526;-0.134;2023-02-01T02:34:57;101983.00;;;24.55;26.28
74573;BME280;63071;51.526;-0.134;2023-02-01T02:39:59;101963.97;;;24.56;26.15
74573;BME280;63071;51.526;-0.134;2023-02-01T02:43:04;101962.44;;;24.55;25.93
74573;BME280;63071;51.526;-0.134;2023-02-01T02:46:03;101962.78;;;24.54;26.28
74573;BME280;63071;51.526;-0.134;2023-02-01T02:51:44;101955.84;;;24.53;26.32
74573;BME280;63071;51.526;-0.134;2023-02-01T02:54:36;101954.75;;;24.54;26.24
74573;BME280;63071;51.526;-0.134;2023-02-01T02:57:36;101954.75;;;24.54;26.07
74573;BME280;63071;51.526;-0.134;2023-02-01T03:00:27;101958.53;;;24.53;26.44
74573;BME280;63071;51.526;-0.134;2023-02-01T03:03:11;101950.09;;;24.51;26.17
74573;BME280;63071;51.526;-0.134;2023-02-01T03:05:55;101958.91;;;24.51;25.99
74573;BME280;63071;51.526;-0.134;2023-02-01T03:08:29;101953.06;;;24.49;26.00
74573;BME280;63071;51.526;-0.134;2023-02-01T03:19:02;101942.75;;;24.48;26.10
74573;BME280;63071;51.526;-0.134;2023-02-01T03:24:21;101948.88;;;24.48;26.23
74573;BME280;63071;51.526;-0.134;2023-02-01T03:26:55;101956.13;;;24.48;26.08
74573;BME280;63071;51.526;-0.134;2023-02-01T03:29:30;101957.34;;;24.50;25.91
74573;BME280;63071;51.526;-0.134;2023-02-01T03:31:58;101956.22;;;24.51;26.24
74573;BME280;63071;51.526;-0.134;2023-02-01T03:34:24;101952.00;;;24.50;26.17
74573;BME280;63071;51.526;-0.134;2023-02-01T03:37:08;101967.69;;;24.52;26.21
74573;BME280;63071;51.526;-0.134;2023-02-01T03:42:34;101957.34;;;24.50;25.78
74573;BME280;63071;51.526;-0.134;2023-02-01T03:45:12;101964.69;;;24.53;25.63
74573;BME280;63071;51.526;-0.134;2023-02-01T03:47:44;101961.22;;;24.53;26.17
74573;BME280;63071;51.526;-0.134;2023-02-01T03:53:20;101976.47;;;24.52;25.71
74573;BME280;63071;51.526;-0.134;2023-02-01T03:55:39;101969.13;;;24.49;25.94
74573;BME280;63071;51.526;-0.134;2023-02-01T03:58:20;101977.63;;;24.51;26.21
74573;BME280;63071;51.526;-0.134;2023-02-01T04:00:52;101971.03;;;24.49;26.01
74573;BME280;63071;51.526;-0.134;2023-02-01T04:03:18;101964.59;;;24.50;26.17
74573;BME280;63071;51.526;-0.134;2023-02-01T04:05:43;101957.34;;;24.50;25.78
74573;BME280;63071;51.526;-0.134;2023-02-01T04:08:09;101952.31;;;24.49;26.04
74573;BME280;63071;51.526;-0.134;2023-02-01T04:10:34;101951.88;;;24.47;26.01
74573;BME280;63071;51.526;-0.134;2023-02-01T04:13:00;101946.97;;;24.49;26.07
74573;BME280;63071;51.526;-0.134;2023-02-01T04:15:25;101941.97;;;24.47;25.83
74573;BME280;63071;51.526;-0.134;2023-02-01T04:17:51;101938.53;;;24.47;25.86
74573;BME280;63071;51.526;-0.134;2023-02-01T04:20:16;101938.53;;;24.47;25.77
74573;BME280;63071;51.526;-0.134;2023-02-01T04:22:42;101942.16;;;24.54;25.96
74573;BME280;63071;51.526;-0.134;2023-02-01T04:25:08;101948.22;;;24.51;25.99
74573;BME280;63071;51.526;-0.134;2023-02-01T04:27:34;101940.84;;;24.48;25.97
74573;BME280;63071;51.526;-0.134;2023-02-01T04:30:00;101943.53;;;24.48;25.77
74573;BME280;63071;51.526;-0.134;2023-02-01T04:32:25;101948.88;;;24.48;25.63
74573;BME280;63071;51.526;-0.134;2023-02-01T04:34:51;101946.53;;;24.47;25.61
74573;BME280;63071;51.526;-0.134;2023-02-01T04:37:16;101943.88;;;24.47;25.77
74573;BME280;63071;51.526;-0.134;2023-02-01T04:39:42;101945.78;;;24.46;26.00
74573;BME280;63071;51.526;-0.134;2023-02-01T04:42:07;101938.88;;;24.45;25.82
74573;BME280;63071;51.526;-0.134;2023-02-01T04:44:33;101940.00;;;24.44;25.82
74573;BME280;63071;51.526;-0.134;2023-02-01T04:46:59;101932.66;;;24.41;25.58
74573;BME280;63071;51.526;-0.134;2023-02-01T04:49:24;101939.16;;;24.40;25.97
74573;BME280;63071;51.526;-0.134;2023-02-01T04:51:52;101949.50;;;24.42;26.30
74573;BME280;63071;51.526;-0.134;2023-02-01T04:54:17;101952.94;;;24.42;25.93
74573;BME280;63071;51.526;-0.134;2023-02-01T04:56:43;101953.72;;;24.43;25.94
74573;BME280;63071;51.526;-0.134;2023-02-01T04:59:11;101950.59;;;24.40;25.80
74573;BME280;63071;51.526;-0.134;2023-02-01T05:01:37;101959.06;;;24.43;25.59
74573;BME280;63071;51.526;-0.134;2023-02-01T05:04:02;101964.41;;;24.43;25.74
74573;BME280;63071;51.526;-0.134;2023-02-01T05:06:28;101968.97;;;24.42;25.87
74573;BME280;63071;51.526;-0.134;2023-02-01T05:08:53;101959.38;;;24.41;25.71
74573;BME280;63071;51.526;-0.134;2023-02-01T05:11:19;101952.16;;;24.42;25.74
74573;BME280;63071;51.526;-0.134;2023-02-01T05:14:03;101966.66;;;24.40;25.68
74573;BME280;63071;51.526;-0.134;2023-02-01T05:16:28;101972.75;;;24.41;25.60
74573;BME280;63071;51.526;-0.134;2023-02-01T05:18:54;101968.22;;;24.42;25.87
74573;BME280;63071;51.526;-0.134;2023-02-01T05:21:19;101970.09;;;24.41;25.96
74573;BME280;63071;51.526;-0.134;2023-02-01T05:23:45;101964.31;;;24.39;25.57
74573;BME280;63071;51.526;-0.134;2023-02-01T05:26:29;101957.44;;;24.38;25.49
74573;BME280;63071;51.526;-0.134;2023-02-01T05:28:54;101964.31;;;24.39;25.56
74573;BME280;63071;51.526;-0.134;2023-02-01T05:31:20;101964.31;;;24.39;25.60
74573;BME280;63071;51.526;-0.134;2023-02-01T05:33:47;101966.56;;;24.37;25.95
74573;BME280;63071;51.526;-0.134;2023-02-01T05:36:13;101971.13;;;24.36;25.75
74573;BME280;63071;51.526;-0.134;2023-02-01T05:38:38;101961.94;;;24.34;26.06
74573;BME280;63071;51.526;-0.134;2023-02-01T05:41:04;101961.50;;;24.32;25.95
74573;BME280;63071;51.526;-0.134;2023-02-01T05:43:30;101962.25;;;24.32;25.68
74573;BME280;63071;51.526;-0.134;2023-02-01T05:45:56;101964.59;;;24.34;25.65
74573;BME280;63071;51.526;-0.134;2023-02-01T05:48:21;101953.91;;;24.34;25.90
74573;BME280;63071;51.526;-0.134;2023-02-01T05:50:47;101936.31;;;24.33;26.00
74573;BME280;63071;51.526;-0.134;2023-02-01T05:53:13;101945.91;;;24.34;25.88
74573;BME280;63071;51.526;-0.134;2023-02-01T05:55:39;101945.91;;;24.34;25.89
74573;BME280;63071;51.526;-0.134;2023-02-01T05:58:05;101942.09;;;24.35;25.55
74573;BME280;63071;51.526;-0.134;2023-02-01T06:00:31;101945.91;;;24.34;25.58
74573;BME280;63071;51.526;-0.134;2023-02-01T06:02:57;101951.22;;;24.34;25.57
74573;BME280;63071;51.526;-0.134;2023-02-01T06:05:23;101947.44;;;24.35;25.76
74573;BME280;63071;51.526;-0.134;2023-02-01T06:07:49;101942.09;;;24.35;25.79
74573;BME280;63071;51.526;-0.134;2023-02-01T06:10:17;101947.78;;;24.33;25.83
74573;BME280;63071;51.526;-0.134;2023-02-01T06:12:44;101949.63;;;24.29;25.70
74573;BME280;63071;51.526;-0.134;2023-02-01T06:15:11;101953.47;;;24.32;25.74
74573;BME280;63071;51.526;-0.134;2023-02-01T06:17:37;101951.56;;;24.32;25.64
74573;BME280;63071;51.526;-0.134;2023-02-01T06:20:04;101945.47;;;24.32;25.30
74573;BME280;63071;51.526;-0.134;2023-02-01T06:22:32;101943.56;;;24.32;25.60
74573;BME280;63071;51.526;-0.134;2023-02-01T06:24:57;101947.78;;;24.33;25.45
74573;BME280;63071;51.526;-0.134;2023-02-01T06:27:24;101939.78;;;24.33;25.73
74573;BME280;63071;51.526;-0.134;2023-02-01T06:29:50;101938.97;;;24.33;25.85
74573;BME280;63071;51.526;-0.134;2023-02-01T06:32:15;101953.91;;;24.34;25.61
74573;BME280;63071;51.526;-0.134;2023-02-01T06:34:43;101937.09;;;24.33;25.57
74573;BME280;63071;51.526;-0.134;2023-02-01T06:37:08;101948.22;;;24.35;25.77
74573;BME280;63071;51.526;-0.134;2023-02-01T06:39:36;101930.63;;;24.34;25.71
74573;BME280;63071;51.526;-0.134;2023-02-01T06:42:02;101936.75;;;24.35;25.52
74573;BME280;63071;51.526;-0.134;2023-02-01T06:44:27;101927.63;;;24.36;25.50
74573;BME280;63071;51.526;-0.134;2023-02-01T06:46:53;101939.84;;;24.37;25.67
74573;BME280;63071;51.526;-0.134;2023-02-01T06:49:20;101947.50;;;24.38;25.52
74573;BME280;63071;51.526;-0.134;2023-02-01T06:51:45;101940.63;;;24.37;25.22
74573;BME280;63071;51.526;-0.134;2023-02-01T06:54:11;101935.34;;;24.41;25.60
74573;BME280;63071;51.526;-0.134;2023-02-01T06:56:36;101943.72;;;24.39;25.66
74573;BME280;63071;51.526;-0.134;2023-02-01T06:59:09;101944.50;;;24.40;25.75
74573;BME280;63071;51.526;-0.134;2023-02-01T07:01:34;101945.25;;;24.40;25.41
74573;BME280;63071;51.526;-0.134;2023-02-01T07:04:00;101957.84;;;24.40;25.13
74573;BME280;63071;51.526;-0.134;2023-02-01T07:06:25;101971.97;;;24.40;25.66
74573;BME280;63071;51.526;-0.134;2023-02-01T07:08:51;101958.13;;;24.35;25.81
74573;BME280;63071;51.526;-0.134;2023-02-01T07:11:18;101975.09;;;24.43;25.70
74573;BME280;63071;51.526;-0.134;2023-02-01T07:13:44;101962.50;;;24.43;25.45
74573;BME280;63071;51.526;-0.134;2023-02-01T07:16:12;101977.41;;;24.44;25.45
74573;BME280;63071;51.526;-0.134;2023-02-01T07:18:38;101978.19;;;24.45;25.83
74573;BME280;63071;51.526;-0.134;2023-02-01T07:21:04;101976.28;;;24.45;25.21
74573;BME280;63071;51.526;-0.134;2023-02-01T07:23:29;101977.06;;;24.46;25.25
74573;BME280;63071;51.526;-0.134;2023-02-01T07:25:57;101987.75;;;24.46;25.37
74573;BME280;63071;51.526;-0.134;2023-02-01T07:28:23;101990.44;;;24.46;25.32
74573;BME280;63071;51.526;-0.134;2023-02-01T07:30:48;101991.97;;;24.47;25.66
74573;BME280;63071;51.526;-0.134;2023-02-01T07:33:23;102002.66;;;24.47;25.19
74573;BME280;63071;51.526;-0.134;2023-02-01T07:35:50;102008.00;;;24.47;25.36
74573;BME280;63071;51.526;-0.134;2023-02-01T07:38:16;102005.34;;;24.47;26.02
74573;BME280;63071;51.526;-0.134;2023-02-01T07:40:42;102013.34;;;24.47;25.49
74573;BME280;63071;51.526;-0.134;2023-02-01T07:43:08;102006.81;;;24.44;25.64
74573;BME280;63071;51.526;-0.134;2023-02-01T07:45:35;101999.91;;;24.43;25.35
74573;BME280;63071;51.526;-0.134;2023-02-01T07:48:01;102001.81;;;24.43;25.74
74573;BME280;63071;51.526;-0.134;2023-02-01T07:50:27;102014.75;;;24.40;25.67
74573;BME280;63071;51.526;-0.134;2023-02-01T07:52:53;102015.50;;;24.41;25.54
74573;BME280;63071;51.526;-0.134;2023-02-01T07:55:19;102014.41;;;24.42;25.28
74573;BME280;63071;51.526;-0.134;2023-02-01T07:57:45;102013.25;;;24.43;25.71
74573;BME280;63071;51.526;-0.134;2023-02-01T08:00:11;102011.72;;;24.42;25.42
74573;BME280;63071;51.526;-0.134;2023-02-01T08:02:59;102015.50;;;24.41;25.67
74573;BME280;63071;51.526;-0.134;2023-02-01T08:05:25;102023.53;;;24.41;25.46
74573;BME280;63071;51.526;-0.134;2023-02-01T08:07:51;102030.00;;;24.40;25.50
74573;BME280;63071;51.526;-0.134;2023-02-01T08:10:18;102025.44;;;24.40;25.56
74573;BME280;63071;51.526;-0.134;2023-02-01T08:12:44;102013.97;;;24.40;25.71
74573;BME280;63071;51.526;-0.134;2023-02-01T08:15:14;102016.66;;;24.40;25.34
74573;BME280;63071;51.526;-0.134;2023-02-01T08:17:49;102017.00;;;24.38;25.37
74573;BME280;63071;51.526;-0.134;2023-02-01T08:20:14;102013.97;;;24.40;25.71
74573;BME280;63071;51.526;-0.134;2023-02-01T08:22:40;102006.28;;;24.38;25.42
74573;BME280;63071;51.526;-0.134;2023-02-01T08:25:06;102012.50;;;24.43;25.46
74573;BME280;63071;51.526;-0.134;2023-02-01T08:27:35;102010.16;;;24.41;25.84
74573;BME280;63071;51.526;-0.134;2023-02-01T08:30:02;102004.41;;;24.39;25.56
74573;BME280;63071;51.526;-0.134;2023-02-01T08:32:28;102006.63;;;24.37;25.58
74573;BME280;63071;51.526;-0.134;2023-02-01T08:34:53;102006.28;;;24.38;25.57
74573;BME280;63071;51.526;-0.134;2023-02-01T08:37:19;102013.53;;;24.38;25.72
74573;BME280;63071;51.526;-0.134;2023-02-01T08:39:45;102006.28;;;24.38;25.71
74573;BME280;63071;51.526;-0.134;2023-02-01T08:42:12;102002.84;;;24.38;25.49
74573;BME280;63071;51.526;-0.134;2023-02-01T08:44:56;101991.31;;;24.34;26.00
74573;BME280;63071;51.526;-0.134;2023-02-01T08:47:22;101995.47;;;24.31;25.70
74573;BME280;63071;51.526;-0.134;2023-02-01T08:49:48;101995.91;;;24.33;25.73
74573;BME280;63071;51.526;-0.134;2023-02-01T08:52:13;101993.91;;;24.30;25.82
74573;BME280;63071;51.526;-0.134;2023-02-01T08:54:39;101996.22;;;24.32;25.79
74573;BME280;63071;51.526;-0.134;2023-02-01T08:57:06;102005.78;;;24.33;25.58
74573;BME280;63071;51.526;-0.134;2023-02-01T08:59:32;102001.56;;;24.32;25.60
74573;BME280;63071;51.526;-0.134;2023-02-01T09:01:57;102005.78;;;24.33;25.94
74573;BME280;63071;51.526;-0.134;2023-02-01T09:04:23;102019.13;;;24.33;25.67
74573;BME280;63071;51.526;-0.134;2023-02-01T09:06:48;102010.38;;;24.32;25.59
74573;BME280;63071;51.526;-0.134;2023-02-01T09:09:14;102007.69;;;24.32;25.69
74573;BME280;63071;51.526;-0.134;2023-02-01T09:11:39;102003.13;;;24.33;25.60
74573;BME280;63071;51.526;-0.134;2023-02-01T09:14:05;101997.72;;;24.29;25.60
74573;BME280;63071;51.526;-0.134;2023-02-01T09:16:31;101999.25;;;24.30;25.31
74573;BME280;63071;51.526;-0.134;2023-02-01T09:18:56;102004.94;;;24.29;25.46
74573;BME280;63071;51.526;-0.134;2023-02-01T09:21:22;101997.72;;;24.29;25.65
74573;BME280;63071;51.526;-0.134;2023-02-01T09:23:47;102017.59;;;24.32;25.63
74573;BME280;63071;51.526;-0.134;2023-02-01T09:26:14;102005.78;;;24.33;25.65
74573;BME280;63071;51.526;-0.134;2023-02-01T09:28:40;102007.69;;;24.32;25.39
74573;BME280;63071;51.526;-0.134;2023-02-01T09:31:05;102005.78;;;24.33;25.25
74573;BME280;63071;51.526;-0.134;2023-02-01T09:33:30;102007.78;;;24.36;25.80
74573;BME280;63071;51.526;-0.134;2023-02-01T09:35:58;102023.09;;;24.39;25.70
74573;BME280;63071;51.526;-0.134;2023-02-01T09:38:24;102021.22;;;24.39;25.39
74573;BME280;63071;51.526;-0.134;2023-02-01T09:40:51;102025.09;;;24.42;25.38
74573;BME280;63071;51.526;-0.134;2023-02-01T09:46:23;102017.50;;;24.44;25.90
74573;BME280;63071;51.526;-0.134;2023-02-01T09:48:54;102017.06;;;24.42;25.95
74573;BME280;63071;51.526;-0.134;2023-02-01T09:51:27;102023.53;;;24.41;25.47
74573;BME280;63071;51.526;-0.134;2023-02-01T09:54:08;102016.66;;;24.40;25.50
74573;BME280;63071;51.526;-0.134;2023-02-01T10:02:08;102023.97;;;24.43;25.62
74573;BME280;63071;51.526;-0.134;2023-02-01T10:04:36;102029.72;;;24.45;25.75
74573;BME280;63071;51.526;-0.134;2023-02-01T10:26:21;102012.34;;;24.51;25.86
74573;BME280;63071;51.526;-0.134;2023-02-01T10:28:50;102014.66;;;24.53;25.73
74573;BME280;63071;51.526;-0.134;2023-02-01T10:31:17;102021.22;;;24.55;25.60
74573;BME280;63071;51.526;-0.134;2023-02-01T10:33:49;102027.69;;;24.54;25.47
74573;BME280;63071;51.526;-0.134;2023-02-01T10:36:44;102032.25;;;24.54;25.89
74573;BME280;63071;51.526;-0.134;2023-02-01T10:39:15;102035.69;;;24.54;25.57
74573;BME280;63071;51.526;-0.134;2023-02-01T10:41:41;102022.00;;;24.56;25.46
74573;BME280;63071;51.526;-0.134;2023-02-01T10:44:17;102032.34;;;24.57;25.46
74573;BME280;63071;51.526;-0.134;2023-02-01T10:46:43;102049.16;;;24.58;25.77
74573;BME280;63071;51.526;-0.134;2023-02-01T10:49:24;102038.13;;;24.59;25.94
74573;BME280;63071;51.526;-0.134;2023-02-01T10:54:36;102044.56;;;24.58;25.41
74573;BME280;63071;51.526;-0.134;2023-02-01T10:57:10;102051.97;;;24.65;26.01
74573;BME280;63071;51.526;-0.134;2023-02-01T10:59:36;102053.53;;;24.66;25.63
74573;BME280;63071;51.526;-0.134;2023-02-01T11:02:34;102045.16;;;24.68;25.75
74573;BME280;63071;51.526;-0.134;2023-02-01T11:05:07;102052.06;;;24.69;25.60
74573;BME280;63071;51.526;-0.134;2023-02-01T11:07:36;102048.28;;;24.70;25.62
74573;BME280;63071;51.526;-0.134;2023-02-01T11:10:03;102051.38;;;24.72;25.68
74573;BME280;63071;51.526;-0.134;2023-02-01T11:12:29;102041.88;;;24.74;25.52
74573;BME280;63071;51.526;-0.134;2023-02-01T11:15:20;102039.97;;;24.75;26.07
74573;BME280;63071;51.526;-0.134;2023-02-01T11:17:51;102037.72;;;24.77;25.93
74573;BME280;63071;51.526;-0.134;2023-02-01T11:20:39;102035.91;;;24.81;26.23
74573;BME280;63071;51.526;-0.134;2023-02-01T11:23:15;102034.06;;;24.85;26.40
74573;BME280;63071;51.526;-0.134;2023-02-01T11:25:54;102034.50;;;24.87;26.11
74573;BME280;63071;51.526;-0.134;2023-02-01T11:28:26;102019.28;;;24.91;25.74
74573;BME280;63071;51.526;-0.134;2023-02-01T11:30:56;102014.03;;;24.95;26.46
74573;BME280;63071;51.526;-0.134;2023-02-01T11:33:29;102017.88;;;24.97;26.15
74573;BME280;63071;51.526;-0.134;2023-02-01T11:35:57;102021.41;;;25.02;26.07
74573;BME280;63071;51.526;-0.134;2023-02-01T11:38:29;102012.69;;;25.05;25.65
74573;BME280;63071;51.526;-0.134;2023-02-01T11:41:11;102020.00;;;25.08;25.78
74573;BME280;63071;51.526;-0.134;2023-02-01T11:43:37;102012.41;;;25.10;25.60
74573;BME280;63071;51.526;-0.134;2023-02-01T11:46:18;102018.59;;;25.14;26.16
74573;BME280;63071;51.526;-0.134;2023-02-01T11:48:50;102004.03;;;25.11;25.77
74573;BME280;63071;51.526;-0.134;2023-02-01T11:51:33;102010.75;;;25.21;25.47
74573;BME280;63071;51.526;-0.134;2023-02-01T11:56:49;102016.59;;;25.27;25.87
74573;BME280;63071;51.526;-0.134;2023-02-01T12:02:22;102013.97;;;25.30;25.19
74573;BME280;63071;51.526;-0.134;2023-02-01T12:08:02;102014.69;;;25.27;25.68
74573;BME280;63071;51.526;-0.134;2023-02-01T12:10:53;102012.34;;;25.26;25.47
74573;BME280;63071;51.526;-0.134;2023-02-01T12:16:17;102016.88;;;25.22;25.71
74573;BME280;63071;51.526;-0.134;2023-02-01T12:19:06;102014.50;;;25.20;25.81
74573;BME280;63071;51.526;-0.134;2023-02-01T12:22:05;102017.56;;;25.18;25.90
74573;BME280;63071;51.526;-0.134;2023-02-01T12:24:56;102006.47;;;25.20;25.88
74573;BME280;63071;51.526;-0.134;2023-02-01T12:27:51;102006.66;;;25.27;25.88
74573;BME280;63071;51.526;-0.134;2023-02-01T12:30:39;102007.78;;;25.26;25.72
74573;BME280;63071;51.526;-0.134;2023-02-01T12:38:38;102003.97;;;25.27;26.57
74573;BME280;63071;51.526;-0.134;2023-02-01T12:46:22;101986.09;;;25.31;25.37
74573;BME280;63071;51.526;-0.134;2023-02-01T12:49:11;101986.38;;;25.26;25.52
74573;BME280;63071;51.526;-0.134;2023-02-01T12:51:44;101987.16;;;25.27;26.43
74573;BME280;63071;51.526;-0.134;2023-02-01T12:57:03;101991.44;;;25.31;26.21
74573;BME280;63071;51.526;-0.134;2023-02-01T12:59:54;101997.56;;;25.32;25.53
74573;BME280;63071;51.526;-0.134;2023-02-01T13:05:20;101991.94;;;25.37;25.65
74573;BME280;63071;51.526;-0.134;2023-02-01T13:07:54;101986.94;;;25.35;25.80
74573;BME280;63071;51.526;-0.134;2023-02-01T13:18:39;101996.38;;;25.29;25.67
74573;BME280;63071;51.526;-0.134;2023-02-01T13:21:25;101990.19;;;25.25;26.00
74573;BME280;63071;51.526;-0.134;2023-02-01T13:23:52;101989.84;;;25.27;26.26
74573;BME280;63071;51.526;-0.134;2023-02-01T13:26:18;101983.69;;;25.26;26.00
74573;BME280;63071;51.526;-0.134;2023-02-01T13:28:51;101988.28;;;25.26;25.72
74573;BME280;63071;51.526;-0.134;2023-02-01T13:42:50;101984.84;;;25.25;26.71
74573;BME280;63071;51.526;-0.134;2023-02-01T13:45:21;101989.13;;;25.30;27.02
74573;BME280;63071;51.526;-0.134;2023-02-01T13:47:51;101975.81;;;25.33;26.68
74573;BME280;63071;51.526;-0.134;2023-02-01T13:53:02;101990.38;;;25.36;26.45
74573;BME280;63071;51.526;-0.134;2023-02-01T13:55:38;101977.00;;;25.36;26.28
74573;BME280;63071;51.526;-0.134;2023-02-01T13:58:33;101983.06;;;25.33;26.78
74573;BME280;63071;51.526;-0.134;2023-02-01T14:11:54;101982.28;;;25.32;26.40
74573;BME280;63071;51.526;-0.134;2023-02-01T14:19:27;101975.47;;;25.35;27.21
74573;BME280;63071;51.526;-0.134;2023-02-01T14:21:59;101976.56;;;25.34;27.14
74573;BME280;63071;51.526;-0.134;2023-02-01T14:24:30;101973.91;;;25.34;27.01
74573;BME280;63071;51.526;-0.134;2023-02-01T14:26:59;101956.00;;;25.38;26.71
74573;BME280;63071;51.526;-0.134;2023-02-01T14:29:37;101962.41;;;25.33;27.26
74573;BME280;63071;51.526;-0.134;2023-02-01T14:32:22;101960.09;;;25.32;26.79
74573;BME280;63071;51.526;-0.134;2023-02-01T14:34:56;101972.34;;;25.33;26.82
74573;BME280;63071;51.526;-0.134;2023-02-01T14:37:26;101959.41;;;25.35;26.53
74573;BME280;63071;51.526;-0.134;2023-02-01T14:40:05;101956.72;;;25.35;26.51
74573;BME280;63071;51.526;-0.134;2023-02-01T14:42:46;101967.00;;;25.33;26.72
74573;BME280;63071;51.526;-0.134;2023-02-01T14:55:52;101952.41;;;25.30;26.42
74573;BME280;63071;51.526;-0.134;2023-02-01T15:03:58;101967.63;;;25.26;26.96
74573;BME280;63071;51.526;-0.134;2023-02-01T15:06:53;101956.94;;;25.26;26.67
74573;BME280;63071;51.526;-0.134;2023-02-01T15:09:36;101967.63;;;25.26;27.08
74573;BME280;63071;51.526;-0.134;2023-02-01T15:15:16;101968.00;;;25.25;26.91
74573;BME280;63071;51.526;-0.134;2023-02-01T15:17:53;101970.69;;;25.25;26.64
74573;BME280;63071;51.526;-0.134;2023-02-01T15:20:25;101975.25;;;25.24;26.21
74573;BME280;63071;51.526;-0.134;2023-02-01T15:25:27;101972.06;;;25.18;26.21
74573;BME280;63071;51.526;-0.134;2023-02-01T15:27:53;101970.94;;;25.19;26.84
74573;BME280;63071;51.526;-0.134;2023-02-01T15:30:28;101984.75;;;25.22;26.90
74573;BME280;63071;51.526;-0.134;2023-02-01T15:33:26;101969.81;;;25.21;26.25
74573;BME280;63071;51.526;-0.134;2023-02-01T15:36:06;101972.84;;;25.19;26.26
74573;BME280;63071;51.526;-0.134;2023-02-01T15:38:35;101973.53;;;25.16;26.30